Time;durP1;ratioP1;P1;durP2;ratioP2;P2;SDS_P1;SDS_P2;PMS_P1;PMS_P2;Temp;Humidity;BMP_temperature;BMP_pressure;BME280_temperature;BME280_humidity;BME280_pressure;Samples;Min_cycle;Max_cycle;Signal;HPM_P1;HPM_P2
2023/10/01 00:01:36;;;;;;;1.50;1.00;;;14.10;98.20;;;;;;4957982;28;20481;-83
2023/10/01 00:04:06;;;;;;;1.50;1.00;;;14.10;98.20;;;;;;4967306;28;20466;-81
2023/10/01 00:06:34;;;;;;;1.50;1.10;;;14.10;98.20;;;;;;4959228;28;20527;-84
2023/10/01 00:09:01;;;;;;;1.50;1.00;;;14.00;98.20;;;;;;4967704;28;20462;-85
2023/10/01 00:11:49;;;;;;;1.50;1.00;;;14.00;98.20;;;;;;4958166;28;20967;-81
2023/10/01 00:14:19;;;;;;;1.50;1.20;;;14.00;98.20;;;;;;4958522;28;20475;-82
2023/10/01 00:16:46;;;;;;;1.50;1.00;;;14.00;98.20;;;;;;4963524;28;20571;-83
2023/10/01 00:19:13;;;;;;;1.50;1.20;;;13.90;98.20;;;;;;4973823;28;20542;-83
2023/10/01 00:21:40;;;;;;;1.50;1.00;;;13.90;98.20;;;;;;4955452;28;20517;-81
2023/10/01 00:24:08;;;;;;;1.50;1.10;;;13.80;98.20;;;;;;4973945;28;20479;-83
2023/10/01 00:26:37;;;;;;;1.50;1.00;;;13.80;98.20;;;;;;4957890;28;20933;-84
2023/10/01 00:29:04;;;;;;;1.50;1.13;;;13.80;98.20;;;;;;4967581;28;20904;-83
2023/10/01 00:31:33;;;;;;;1.50;1.00;;;13.80;98.20;;;;;;4958974;28;20763;-82
2023/10/01 00:34:00;;;;;;;1.50;1.10;;;13.70;98.20;;;;;;4969369;28;20519;-83
2023/10/01 00:36:29;;;;;;;1.50;1.07;;;13.70;98.20;;;;;;4956193;28;20481;-82
2023/10/01 00:38:57;;;;;;;1.50;1.17;;;13.70;98.20;;;;;;4970428;28;20470;-83
2023/10/01 00:41:25;;;;;;;1.50;1.10;;;13.70;98.20;;;;;;4956641;28;20910;-83
2023/10/01 00:43:52;;;;;;;1.50;1.17;;;13.60;98.20;;;;;;4970185;28;20491;-81
2023/10/01 00:46:19;;;;;;;1.50;1.10;;;13.60;98.20;;;;;;4956454;28;20561;-84
2023/10/01 00:48:49;;;;;;;1.50;1.10;;;13.60;98.20;;;;;;4971370;28;20554;-83
2023/10/01 00:51:20;;;;;;;1.50;1.00;;;13.60;98.20;;;;;;4952465;28;20931;-84
2023/10/01 00:53:49;;;;;;;1.50;1.10;;;13.60;98.20;;;;;;4970583;28;20470;-83
2023/10/01 00:56:20;;;;;;;1.50;1.10;;;13.60;98.20;;;;;;4951888;28;20949;-84
2023/10/01 00:58:48;;;;;;;1.50;1.10;;;13.60;98.20;;;;;;4968903;28;20957;-83
2023/10/01 01:01:17;;;;;;;1.50;1.00;;;13.60;98.20;;;;;;4951934;28;20477;-83
2023/10/01 01:03:44;;;;;;;1.50;1.00;;;13.60;98.20;;;;;;4969675;28;20463;-81
2023/10/01 01:06:17;;;;;;;1.50;1.00;;;13.60;98.20;;;;;;4951595;28;20493;-83
2023/10/01 01:08:49;;;;;;;1.50;1.10;;;13.60;98.20;;;;;;4981589;28;20467;-81
2023/10/01 01:11:17;;;;;;;1.50;1.00;;;13.60;98.20;;;;;;4955396;28;20488;-82
2023/10/01 01:13:48;;;;;;;2.80;2.60;;;13.50;98.20;;;;;;4973033;28;20462;-83
2023/10/01 01:16:19;;;;;;;1.50;1.00;;;13.50;98.20;;;;;;4951101;28;21108;-82
2023/10/01 01:18:47;;;;;;;1.77;1.50;;;13.50;98.20;;;;;;4968573;28;20554;-84
2023/10/01 01:21:15;;;;;;;1.50;1.00;;;13.40;98.20;;;;;;4953342;28;20571;-84
2023/10/01 01:23:45;;;;;;;1.50;1.00;;;13.40;98.20;;;;;;4966551;28;20472;-82
2023/10/01 01:26:13;;;;;;;1.50;1.10;;;13.40;98.20;;;;;;4951236;28;20563;-82
2023/10/01 01:28:41;;;;;;;1.50;1.10;;;13.40;98.20;;;;;;4976842;28;20467;-83
2023/10/01 01:31:11;;;;;;;1.50;1.10;;;13.40;98.20;;;;;;4954897;28;20674;-83
2023/10/01 01:33:44;;;;;;;1.50;1.10;;;13.30;98.20;;;;;;4982012;28;20458;-83
2023/10/01 01:36:12;;;;;;;1.50;1.07;;;13.30;98.20;;;;;;4949682;28;20489;-83
2023/10/01 01:39:09;;;;;;;1.50;1.10;;;13.30;98.20;;;;;;4971441;28;20560;-83
2023/10/01 01:41:42;;;;;;;1.50;1.00;;;13.30;98.20;;;;;;4950142;28;21032;-83
2023/10/01 01:44:11;;;;;;;1.50;1.10;;;13.30;98.20;;;;;;4970436;28;20463;-83
2023/10/01 01:46:47;;;;;;;1.50;1.00;;;13.30;98.20;;;;;;4954458;28;20521;-83
2023/10/01 01:49:19;;;;;;;1.50;1.20;;;13.30;98.20;;;;;;4966618;28;20605;-83
2023/10/01 01:51:59;;;;;;;1.50;1.00;;;13.30;98.20;;;;;;4956450;28;21052;-83
2023/10/01 01:54:34;;;;;;;1.50;1.10;;;13.30;98.20;;;;;;5033267;23;20505;-80
2023/10/01 01:57:02;;;;;;;1.50;1.10;;;13.20;98.20;;;;;;4969565;28;20548;-80
2023/10/01 01:59:31;;;;;;;1.50;1.00;;;13.20;98.20;;;;;;4975578;28;20470;-79
2023/10/01 02:01:59;;;;;;;1.50;1.10;;;13.20;98.20;;;;;;4969977;28;20485;-79
2023/10/01 02:04:26;;;;;;;1.50;1.00;;;13.10;98.20;;;;;;4987409;28;20481;-79
2023/10/01 02:06:54;;;;;;;1.70;1.60;;;13.20;98.20;;;;;;4987745;28;20488;-79
2023/10/01 02:09:24;;;;;;;1.50;1.00;;;13.10;98.20;;;;;;4997262;28;20469;-80
2023/10/01 02:11:53;;;;;;;1.50;1.00;;;13.10;98.20;;;;;;4986575;28;20551;-79
2023/10/01 02:14:34;;;;;;;1.50;1.10;;;13.20;98.20;;;;;;4995181;28;20517;-79
2023/10/01 02:17:13;;;;;;;1.50;1.03;;;13.20;98.20;;;;;;4992909;28;20596;-79
2023/10/01 02:19:40;;;;;;;1.50;1.00;;;13.20;98.20;;;;;;4990378;28;20468;-78
2023/10/01 02:22:08;;;;;;;1.50;1.10;;;13.20;98.20;;;;;;4988694;28;20499;-79
2023/10/01 02:24:44;;;;;;;1.50;1.10;;;13.20;98.20;;;;;;4992003;28;20916;-78
2023/10/01 02:27:14;;;;;;;1.50;1.00;;;13.20;98.20;;;;;;4988828;28;20483;-78
2023/10/01 02:30:11;;;;;;;1.87;1.67;;;13.20;98.20;;;;;;4992979;28;20465;-79
2023/10/01 02:32:35;;;;;;;1.50;1.10;;;13.20;98.20;;;;;;4999469;28;20888;-79
2023/10/01 02:35:33;;;;;;;1.50;1.00;;;13.20;98.20;;;;;;4987922;28;20900;-78
2023/10/01 02:37:50;;;;;;;1.60;1.50;;;13.20;98.20;;;;;;4990510;28;21117;-78
2023/10/01 02:40:18;;;;;;;1.50;1.03;;;13.20;98.20;;;;;;4987698;28;20488;-79
2023/10/01 02:42:49;;;;;;;1.50;1.10;;;13.20;98.20;;;;;;4991724;28;20476;-79
2023/10/01 02:45:30;;;;;;;1.50;1.10;;;13.20;98.20;;;;;;4986902;28;20566;-79
2023/10/01 02:50:38;;;;;;;1.50;1.10;;;13.30;98.20;;;;;;4983215;28;20989;-79
2023/10/01 02:53:04;;;;;;;1.50;1.10;;;13.30;98.20;;;;;;4991023;28;21402;-79
2023/10/01 02:55:31;;;;;;;1.50;1.00;;;13.30;98.20;;;;;;4987474;28;20499;-79
2023/10/01 02:58:18;;;;;;;1.50;1.10;;;13.30;98.20;;;;;;4996746;28;20486;-79
2023/10/01 03:00:45;;;;;;;1.50;1.10;;;13.30;98.20;;;;;;4984688;28;20521;-79
2023/10/01 03:03:15;;;;;;;1.50;1.07;;;13.30;98.20;;;;;;4976684;28;20480;-78
2023/10/01 03:05:46;;;;;;;1.50;1.00;;;13.30;98.20;;;;;;4988465;28;20481;-79
2023/10/01 03:08:41;;;;;;;1.50;1.10;;;13.30;98.20;;;;;;4999179;28;20898;-80
2023/10/01 03:11:08;;;;;;;1.50;1.10;;;13.20;98.20;;;;;;4980199;28;20497;-80
2023/10/01 03:13:37;;;;;;;1.50;1.10;;;13.20;98.20;;;;;;5002126;28;20968;-78
2023/10/01 03:18:54;;;;;;;1.50;1.00;;;13.20;98.20;;;;;;5003914;28;20464;-79
2023/10/01 03:22:15;;;;;;;1.50;1.10;;;13.20;98.20;;;;;;4984670;28;20479;-79
2023/10/01 03:24:09;;;;;;;1.50;1.00;;;13.20;98.20;;;;;;5001408;28;20558;-79
2023/10/01 03:26:43;;;;;;;1.50;1.07;;;13.30;98.20;;;;;;4988987;28;20514;-78
2023/10/01 03:29:17;;;;;;;1.50;1.00;;;13.30;98.20;;;;;;4998706;28;20845;-79
2023/10/01 03:31:46;;;;;;;1.50;1.10;;;13.20;98.20;;;;;;4984530;28;20484;-80
2023/10/01 03:34:28;;;;;;;1.50;1.00;;;13.20;98.20;;;;;;4991623;28;20486;-79
2023/10/01 03:36:58;;;;;;;1.50;1.00;;;13.20;98.20;;;;;;4989737;28;20500;-79
2023/10/01 03:39:26;;;;;;;1.50;1.00;;;13.30;98.20;;;;;;4997940;28;20461;-78
2023/10/01 03:42:10;;;;;;;1.50;1.10;;;13.30;98.20;;;;;;4978393;28;20476;-80
2023/10/01 03:47:23;;;;;;;1.50;1.10;;;13.30;98.20;;;;;;4986669;28;20475;-79
2023/10/01 03:49:54;;;;;;;1.50;1.10;;;13.30;98.20;;;;;;4990549;28;20472;-79
2023/10/01 03:52:21;;;;;;;1.50;1.00;;;13.30;98.20;;;;;;4996448;28;20520;-80
2023/10/01 03:55:00;;;;;;;1.50;1.00;;;13.20;98.20;;;;;;4996547;28;20488;-79
2023/10/01 03:57:29;;;;;;;1.50;1.13;;;13.20;98.20;;;;;;4992597;28;20531;-79
2023/10/01 03:59:58;;;;;;;1.50;1.00;;;13.20;98.20;;;;;;4994942;28;20478;-80
2023/10/01 04:02:27;;;;;;;1.50;1.00;;;13.10;98.20;;;;;;4998316;28;20553;-80
2023/10/01 04:04:57;;;;;;;1.50;1.10;;;13.10;98.20;;;;;;4995319;28;20988;-80
2023/10/01 04:07:26;;;;;;;1.50;1.00;;;13.10;98.20;;;;;;4998365;28;20555;-80
2023/10/01 04:09:53;;;;;;;1.50;1.00;;;13.20;98.20;;;;;;4997959;28;20467;-80
2023/10/01 04:12:20;;;;;;;1.50;1.00;;;13.20;98.20;;;;;;4995184;28;20495;-79
2023/10/01 04:14:52;;;;;;;1.50;1.10;;;13.20;98.20;;;;;;4996338;28;20543;-79
2023/10/01 04:17:25;;;;;;;3.20;3.00;;;13.20;98.20;;;;;;4993736;28;20763;-79
2023/10/01 04:19:57;;;;;;;1.50;1.07;;;13.30;98.20;;;;;;4999274;28;20844;-79
2023/10/01 04:22:27;;;;;;;1.50;1.10;;;13.30;98.20;;;;;;4996599;28;20537;-77
2023/10/01 04:25:09;;;;;;;1.50;1.00;;;13.30;98.20;;;;;;4999746;28;20930;-78
2023/10/01 04:27:36;;;;;;;1.50;1.00;;;13.30;98.20;;;;;;4991377;28;20480;-78
2023/10/01 04:30:08;;;;;;;1.50;1.00;;;13.30;98.20;;;;;;5002566;28;20468;-79
2023/10/01 04:32:37;;;;;;;1.50;1.10;;;13.30;98.20;;;;;;5001064;28;20543;-78
2023/10/01 04:35:14;;;;;;;1.50;1.00;;;13.30;98.20;;;;;;5000723;28;20489;-78
2023/10/01 04:37:42;;;;;;;1.50;1.00;;;13.30;98.20;;;;;;4995408;28;20480;-79
2023/10/01 04:43:01;;;;;;;1.50;1.00;;;13.20;98.20;;;;;;4999801;28;20879;-77
2023/10/01 04:45:36;;;;;;;2.37;2.13;;;13.20;98.20;;;;;;5001792;28;21006;-78
2023/10/01 04:48:17;;;;;;;1.50;1.00;;;13.10;98.20;;;;;;4998636;28;20562;-79
2023/10/01 04:50:50;;;;;;;1.50;1.03;;;13.10;98.20;;;;;;5001873;28;20885;-80
2023/10/01 04:53:20;;;;;;;1.50;1.10;;;13.10;98.20;;;;;;4986323;28;20559;-77
2023/10/01 04:55:57;;;;;;;1.50;1.10;;;13.10;98.20;;;;;;4994501;28;20497;-77
2023/10/01 04:58:26;;;;;;;1.50;1.00;;;13.20;98.20;;;;;;4988575;28;20914;-77
2023/10/01 05:00:55;;;;;;;1.50;1.10;;;13.20;98.20;;;;;;4993159;28;20477;-78
2023/10/01 05:03:38;;;;;;;1.50;1.07;;;13.20;98.20;;;;;;5013052;28;20770;-78
2023/10/01 05:06:09;;;;;;;1.50;1.10;;;13.20;98.20;;;;;;4989883;28;20515;-77
2023/10/01 05:08:42;;;;;;;1.50;1.07;;;13.20;98.20;;;;;;5012371;28;20461;-76
2023/10/01 05:11:11;;;;;;;1.50;1.10;;;13.20;98.20;;;;;;4992624;28;20930;-77
2023/10/01 05:13:42;;;;;;;1.50;1.00;;;13.20;98.20;;;;;;4999987;28;20868;-77
2023/10/01 05:16:12;;;;;;;1.50;1.00;;;13.20;98.20;;;;;;4984203;28;20490;-77
2023/10/01 05:18:42;;;;;;;1.50;1.10;;;13.20;98.20;;;;;;5005331;28;21459;-76
2023/10/01 05:21:13;;;;;;;1.50;1.00;;;13.20;98.20;;;;;;4990225;28;20601;-75
2023/10/01 05:23:40;;;;;;;1.50;1.10;;;13.20;98.20;;;;;;5006098;28;20496;-77
2023/10/01 05:26:08;;;;;;;1.50;1.00;;;13.20;98.20;;;;;;4984653;28;20552;-76
2023/10/01 05:28:36;;;;;;;1.50;1.10;;;13.20;98.20;;;;;;5003466;28;20856;-76
2023/10/01 05:31:12;;;;;;;1.50;1.00;;;13.10;98.20;;;;;;4986528;28;20471;-77
2023/10/01 05:33:45;;;;;;;1.50;1.03;;;13.10;98.20;;;;;;5003876;28;20905;-77
2023/10/01 05:36:14;;;;;;;1.50;1.00;;;13.10;98.20;;;;;;4984885;28;20485;-77
2023/10/01 05:38:43;;;;;;;1.50;1.00;;;13.10;98.20;;;;;;5002110;28;20465;-77
2023/10/01 05:41:13;;;;;;;1.50;1.10;;;13.10;98.20;;;;;;4990451;28;20480;-77
2023/10/01 05:43:50;;;;;;;1.50;1.20;;;13.10;98.20;;;;;;5012881;28;20499;-77
2023/10/01 05:46:18;;;;;;;1.50;1.00;;;13.10;98.20;;;;;;5005154;28;20495;-78
2023/10/01 05:48:49;;;;;;;1.50;1.10;;;13.10;98.20;;;;;;5004544;28;20563;-76
2023/10/01 05:51:18;;;;;;;1.50;1.00;;;13.10;98.20;;;;;;4986997;28;20482;-79
2023/10/01 05:53:46;;;;;;;3.40;3.10;;;13.10;98.20;;;;;;5003476;28;20508;-76
2023/10/01 05:56:15;;;;;;;1.50;1.00;;;13.10;98.20;;;;;;4982841;28;20479;-79
2023/10/01 05:58:43;;;;;;;1.50;1.20;;;13.10;98.20;;;;;;5002544;28;20857;-78
2023/10/01 06:01:17;;;;;;;1.50;1.03;;;13.10;98.20;;;;;;4988471;28;21049;-77
2023/10/01 06:03:48;;;;;;;1.50;1.00;;;13.20;98.20;;;;;;5001899;28;20483;-77
2023/10/01 06:06:24;;;;;;;1.50;1.00;;;13.20;98.20;;;;;;4986982;28;21001;-77
2023/10/01 06:08:58;;;;;;;1.60;1.50;;;13.20;98.20;;;;;;5005183;28;20467;-76
2023/10/01 06:11:39;;;;;;;1.50;1.10;;;13.20;98.20;;;;;;4984860;28;20566;-76
2023/10/01 06:14:06;;;;;;;1.50;1.07;;;13.20;98.20;;;;;;4997117;28;20489;-75
2023/10/01 06:16:37;;;;;;;1.50;1.10;;;13.20;98.20;;;;;;4987614;28;20531;-77
2023/10/01 06:19:11;;;;;;;1.50;1.00;;;13.20;98.20;;;;;;4999076;28;20473;-77
2023/10/01 06:21:39;;;;;;;1.50;1.03;;;13.30;98.20;;;;;;4985283;28;20555;-76
2023/10/01 06:24:08;;;;;;;1.50;1.10;;;13.30;98.20;;;;;;4998584;28;20575;-75
2023/10/01 06:26:37;;;;;;;1.50;1.00;;;13.30;98.20;;;;;;4987914;28;20485;-76
2023/10/01 06:29:07;;;;;;;1.50;1.00;;;13.40;98.20;;;;;;4994275;28;20512;-75
2023/10/01 06:31:48;;;;;;;1.50;1.10;;;13.50;98.20;;;;;;4986935;28;20479;-77
2023/10/01 06:34:21;;;;;;;1.50;1.20;;;13.50;98.20;;;;;;4994797;28;20499;-78
2023/10/01 06:36:55;;;;;;;1.50;1.00;;;13.60;98.20;;;;;;4991896;28;20471;-78
2023/10/01 06:39:25;;;;;;;1.50;1.10;;;13.70;98.20;;;;;;4996357;28;20460;-77
2023/10/01 06:41:54;;;;;;;1.50;1.00;;;13.80;98.20;;;;;;4987721;28;20480;-77
2023/10/01 06:44:22;;;;;;;1.50;1.10;;;13.90;98.20;;;;;;5004094;28;20584;-76
2023/10/01 06:46:52;;;;;;;1.50;1.10;;;14.00;98.20;;;;;;4996520;28;20504;-77
2023/10/01 06:49:22;;;;;;;1.50;1.00;;;14.20;98.20;;;;;;5000552;28;20468;-78
2023/10/01 06:51:52;;;;;;;1.50;1.00;;;14.30;98.20;;;;;;4988110;28;20490;-78
2023/10/01 06:54:22;;;;;;;1.50;1.17;;;14.40;98.20;;;;;;4997553;28;20495;-77
2023/10/01 06:56:50;;;;;;;1.50;1.00;;;14.50;98.20;;;;;;4987917;28;20706;-76
2023/10/01 06:59:27;;;;;;;1.53;1.00;;;14.60;98.20;;;;;;4997099;28;20507;-78
2023/10/01 07:02:10;;;;;;;;;;;;;;;;;;;;;
2023/10/01 07:04:41;;;;;;;1.50;1.00;;;14.80;98.20;;;;;;4995369;28;20488;-76
2023/10/01 07:07:21;;;;;;;1.50;1.07;;;14.90;98.20;;;;;;4993279;28;20530;-76
2023/10/01 07:09:53;;;;;;;1.50;1.00;;;15.00;98.20;;;;;;5000910;28;20484;-77
2023/10/01 07:12:23;;;;;;;1.50;1.00;;;15.10;98.20;;;;;;4993047;28;20497;-78
2023/10/01 07:14:53;;;;;;;1.50;1.00;;;15.20;98.20;;;;;;5000643;28;20774;-78
2023/10/01 07:17:24;;;;;;;1.60;1.17;;;15.30;98.20;;;;;;4994510;28;20581;-78
2023/10/01 07:22:39;;;;;;;1.50;1.10;;;15.50;98.20;;;;;;4999566;28;20905;-77
2023/10/01 07:25:28;;;;;;;1.50;1.00;;;15.60;98.20;;;;;;4996618;28;20608;-76
2023/10/01 07:27:56;;;;;;;1.50;1.00;;;15.70;98.20;;;;;;4996980;28;20497;-76
2023/10/01 07:30:39;;;;;;;1.50;1.00;;;15.90;98.20;;;;;;4995945;28;20941;-77
2023/10/01 07:33:12;;;;;;;1.50;1.10;;;16.00;98.20;;;;;;5001496;28;21034;-77
2023/10/01 07:35:58;;;;;;;1.50;1.00;;;16.10;98.20;;;;;;4997768;28;20484;-78
2023/10/01 07:38:28;;;;;;;1.53;1.07;;;16.20;98.20;;;;;;4986261;28;20645;-77
2023/10/01 07:41:07;;;;;;;1.50;1.00;;;16.30;98.20;;;;;;4988807;28;20544;-77
2023/10/01 07:43:40;;;;;;;1.50;1.10;;;16.40;98.20;;;;;;5014527;28;20460;-78
2023/10/01 07:46:09;;;;;;;1.50;1.00;;;16.50;98.20;;;;;;4988340;28;20527;-78
2023/10/01 07:48:38;;;;;;;1.50;1.00;;;16.60;98.20;;;;;;5002311;28;20515;-78
2023/10/01 07:51:22;;;;;;;1.50;1.00;;;16.70;98.20;;;;;;4990833;28;20543;-78
2023/10/01 07:53:53;;;;;;;1.50;1.00;;;16.90;98.20;;;;;;5007031;28;20520;-79
2023/10/01 07:56:23;;;;;;;1.60;1.00;;;17.10;98.20;;;;;;4988602;28;20481;-79
2023/10/01 07:59:16;;;;;;;1.50;0.90;;;17.20;98.20;;;;;;5012850;28;20565;-78
2023/10/01 08:01:45;;;;;;;1.50;0.93;;;17.30;98.20;;;;;;4992735;28;20483;-78
2023/10/01 08:07:05;;;;;;;1.53;0.90;;;17.50;98.20;;;;;;4991580;28;20532;-78
2023/10/01 08:09:39;;;;;;;1.57;0.93;;;17.70;98.20;;;;;;4998098;28;20548;-79
2023/10/01 08:12:06;;;;;;;1.50;1.00;;;17.80;98.20;;;;;;4994402;28;20593;-78
2023/10/01 08:14:35;;;;;;;1.50;0.90;;;17.80;98.20;;;;;;4998808;28;20493;-78
2023/10/01 08:17:04;;;;;;;2.23;1.70;;;18.00;98.20;;;;;;4993868;28;20486;-77
2023/10/01 08:23:09;;;;;;;1.50;1.00;;;18.10;98.20;;;;;;4995163;28;20550;-78
2023/10/01 08:25:42;;;;;;;1.53;1.00;;;18.20;98.20;;;;;;4997644;28;20489;-77
2023/10/01 08:31:42;;;;;;;1.50;1.00;;;18.50;98.20;;;;;;4990664;28;20457;-78
2023/10/01 08:34:22;;;;;;;1.50;0.90;;;18.70;98.20;;;;;;5011099;28;20473;-79
2023/10/01 08:36:48;;;;;;;1.50;1.00;;;18.90;98.20;;;;;;4989920;28;20496;-78
2023/10/01 08:39:33;;;;;;;1.50;0.90;;;19.10;98.20;;;;;;4993442;28;20485;-78
2023/10/01 08:42:08;;;;;;;1.50;1.00;;;19.10;98.20;;;;;;4993586;28;21159;-77
2023/10/01 08:44:44;;;;;;;1.60;1.20;;;19.20;98.20;;;;;;5002229;28;21290;-77
2023/10/01 08:47:27;;;;;;;1.50;0.90;;;19.30;98.20;;;;;;4990083;28;20480;-80
2023/10/01 08:49:57;;;;;;;1.50;1.00;;;19.40;98.20;;;;;;5002017;28;20461;-79
2023/10/01 08:52:30;;;;;;;1.50;1.00;;;19.50;98.20;;;;;;5000693;28;20503;-79
2023/10/01 08:54:59;;;;;;;1.50;0.90;;;19.60;98.20;;;;;;4996255;28;20596;-79
2023/10/01 08:57:45;;;;;;;1.50;0.90;;;19.80;98.20;;;;;;4993669;28;20483;-80
2023/10/01 09:00:19;;;;;;;1.50;0.90;;;20.00;98.20;;;;;;4995323;28;20959;-78
2023/10/01 09:02:51;;;;;;;1.50;0.90;;;20.20;98.20;;;;;;4994682;28;20488;-79
2023/10/01 09:05:26;;;;;;;1.50;0.90;;;20.30;98.20;;;;;;4994070;28;20551;-79
2023/10/01 09:10:51;;;;;;;3.30;2.80;;;20.60;98.20;;;;;;4993811;28;20754;-78
2023/10/01 09:13:22;;;;;;;1.50;1.00;;;20.80;98.20;;;;;;4989388;28;20587;-80
2023/10/01 09:15:54;;;;;;;1.50;0.90;;;20.90;98.20;;;;;;4986638;28;20755;-78
2023/10/01 09:18:23;;;;;;;1.50;0.90;;;21.10;98.20;;;;;;5004674;28;20527;-77
2023/10/01 09:23:54;;;;;;;1.50;0.90;;;21.30;98.20;;;;;;5006122;28;20563;-79
2023/10/01 09:26:44;;;;;;;1.50;0.90;;;21.50;98.20;;;;;;4989776;28;20778;-78
2023/10/01 09:29:22;;;;;;;1.50;0.90;;;21.50;98.10;;;;;;4999634;28;20948;-79
2023/10/01 09:31:53;;;;;;;1.50;0.90;;;21.60;98.20;;;;;;4994528;28;20590;-80
2023/10/01 09:34:31;;;;;;;1.50;0.90;;;21.70;98.20;;;;;;5003506;28;20499;-78
2023/10/01 09:37:01;;;;;;;1.50;0.90;;;21.80;98.20;;;;;;4992530;28;20563;-80
2023/10/01 09:39:38;;;;;;;1.50;0.90;;;22.00;98.20;;;;;;4997335;28;20550;-78
2023/10/01 09:44:52;;;;;;;1.50;0.90;;;22.40;98.20;;;;;;4994338;28;20495;-79
2023/10/01 09:47:24;;;;;;;1.50;1.00;;;22.50;97.40;;;;;;4994069;28;20485;-80
2023/10/01 09:49:53;;;;;;;1.50;0.90;;;22.70;97.80;;;;;;4995162;28;20460;-80
2023/10/01 09:52:30;;;;;;;1.50;1.07;;;22.80;97.20;;;;;;4995741;28;20490;-78
2023/10/01 09:55:23;;;;;;;1.63;1.27;;;23.00;97.70;;;;;;4997217;28;20493;-80
2023/10/01 09:57:54;;;;;;;1.50;0.90;;;23.20;96.60;;;;;;4995944;28;20477;-79
2023/10/01 10:00:39;;;;;;;1.50;0.90;;;23.40;96.40;;;;;;4995001;28;21060;-81
2023/10/01 10:03:11;;;;;;;1.50;0.90;;;23.60;95.40;;;;;;4996085;28;20484;-78
2023/10/01 10:05:40;;;;;;;1.50;0.87;;;23.70;95.10;;;;;;4994954;28;20994;-77
2023/10/01 10:08:20;;;;;;;1.47;0.83;;;23.80;95.50;;;;;;4997078;28;21087;-79
2023/10/01 10:10:52;;;;;;;2.00;1.67;;;23.90;95.30;;;;;;4990210;28;20475;-77
2023/10/01 10:13:38;;;;;;;1.50;0.90;;;24.10;94.00;;;;;;5009146;28;21738;-78
2023/10/01 10:19:09;;;;;;;1.47;0.90;;;24.10;93.80;;;;;;5005917;28;20491;-80
2023/10/01 10:22:16;;;;;;;1.50;0.90;;;24.00;94.50;;;;;;4989947;28;20510;-79
2023/10/01 10:24:48;;;;;;;1.47;0.90;;;24.10;94.80;;;;;;4996794;28;20873;-78
2023/10/01 10:27:56;;;;;;;1.50;0.90;;;24.10;94.90;;;;;;4995425;28;20490;-80
2023/10/01 10:30:27;;;;;;;1.50;0.80;;;24.10;95.40;;;;;;4997475;28;20464;-79
2023/10/01 10:33:30;;;;;;;1.53;1.00;;;24.20;95.10;;;;;;4999866;28;20487;-79
2023/10/01 10:36:51;;;;;;;1.50;0.83;;;24.20;95.30;;;;;;4930470;29;20930;-80
2023/10/01 10:40:02;;;;;;;1.50;0.90;;;24.20;93.80;;;;;;4995547;28;20460;-80
2023/10/01 10:42:30;;;;;;;1.47;0.80;;;24.30;94.90;;;;;;4890477;29;20485;-78
2023/10/01 10:45:20;;;;;;;1.43;0.80;;;24.30;93.40;;;;;;4911272;29;20498;-78
2023/10/01 10:48:14;;;;;;;1.47;0.80;;;24.30;93.70;;;;;;4977745;28;20466;-78
2023/10/01 10:50:44;;;;;;;3.70;1.10;;;24.30;94.20;;;;;;4996314;28;20890;-78
2023/10/01 10:53:19;;;;;;;1.50;0.90;;;24.20;94.80;;;;;;4994513;28;20624;-79
2023/10/01 10:56:00;;;;;;;1.43;0.90;;;24.40;95.20;;;;;;4994962;28;20500;-79
2023/10/01 10:58:29;;;;;;;1.50;0.90;;;24.60;94.60;;;;;;5011153;28;20566;-79
2023/10/01 11:00:57;;;;;;;1.50;1.00;;;24.70;94.50;;;;;;4990548;28;20504;-79
2023/10/01 11:03:42;;;;;;;1.50;0.90;;;24.80;94.20;;;;;;5006591;28;20464;-79
2023/10/01 11:08:54;;;;;;;1.57;1.23;;;25.20;92.80;;;;;;1190132;23;21754;-82
2023/10/01 11:11:49;;;;;;;1.50;0.90;;;25.30;93.50;;;;;;4980387;28;20475;-83
2023/10/01 11:14:17;;;;;;;1.50;0.80;;;25.50;92.60;;;;;;4972920;28;20484;-82
2023/10/01 11:16:46;;;;;;;1.47;0.90;;;25.70;92.00;;;;;;4977845;28;20489;-82
2023/10/01 11:19:25;;;;;;;1.50;0.90;;;25.80;92.30;;;;;;5000848;28;20511;-83
2023/10/01 11:21:56;;;;;;;1.50;0.80;;;25.90;91.20;;;;;;4982506;28;20552;-83
2023/10/01 11:24:34;;;;;;;1.43;0.80;;;26.00;91.90;;;;;;5002101;28;20555;-82
2023/10/01 11:27:40;;;;;;;1.50;0.80;;;26.20;91.70;;;;;;4993582;28;20518;-83
2023/10/01 11:30:15;;;;;;;2.60;2.33;;;26.30;91.30;;;;;;4998194;28;20492;-80
2023/10/01 11:33:12;;;;;;;1.50;0.80;;;26.50;90.30;;;;;;4995563;28;20481;-82
2023/10/01 11:35:59;;;;;;;1.50;0.87;;;26.60;90.70;;;;;;4993298;28;20898;-82
2023/10/01 11:38:35;;;;;;;1.47;0.80;;;26.60;89.40;;;;;;4982310;28;20598;-82
2023/10/01 11:41:50;;;;;;;1.40;0.80;;;26.70;90.10;;;;;;4998621;28;20492;-83
2023/10/01 11:48:05;;;;;;;1.47;0.97;;;26.90;89.40;;;;;;4971910;28;20814;-82
2023/10/01 11:50:51;;;;;;;1.40;0.80;;;27.00;87.80;;;;;;4997681;28;20460;-82
2023/10/01 11:53:28;;;;;;;1.50;0.90;;;27.00;87.30;;;;;;4985036;28;20487;-82
2023/10/01 11:58:46;;;;;;;1.50;0.90;;;27.00;86.90;;;;;;4999245;28;20676;-81
2023/10/01 12:03:58;;;;;;;1.50;0.83;;;27.20;86.40;;;;;;4983148;28;20878;-78
2023/10/01 12:06:34;;;;;;;1.43;0.80;;;27.30;85.10;;;;;;4965101;28;20503;-80
2023/10/01 12:09:01;;;;;;;1.40;0.80;;;27.30;84.70;;;;;;5401210;23;20485;-83
2023/10/01 12:12:02;;;;;;;1.50;0.90;;;27.30;85.40;;;;;;4963253;28;20545;-85
2023/10/01 12:18:07;;;;;;;1.43;0.80;;;27.60;85.10;;;;;;4968818;28;20807;-82
2023/10/01 12:20:47;;;;;;;1.43;0.80;;;27.70;85.10;;;;;;5002688;28;20489;-83
2023/10/01 12:29:42;;;;;;;1.60;1.10;;;27.80;84.20;;;;;;4952667;28;20505;-82
2023/10/01 12:34:57;;;;;;;1.40;0.80;;;27.90;82.50;;;;;;4956454;28;20473;-83
2023/10/01 12:40:21;;;;;;;1.50;0.80;;;28.00;84.50;;;;;;4956032;28;20909;-81
2023/10/01 12:42:51;;;;;;;1.47;0.80;;;28.10;84.00;;;;;;4960544;28;20554;-82
2023/10/01 12:45:33;;;;;;;1.43;0.90;;;28.30;83.80;;;;;;4959444;28;20509;-82
2023/10/01 12:48:08;;;;;;;1.40;0.80;;;28.40;83.50;;;;;;4960485;28;20473;-83
2023/10/01 12:50:35;;;;;;;1.50;1.00;;;28.40;82.20;;;;;;4953807;28;20470;-82
2023/10/01 12:53:19;;;;;;;1.47;0.80;;;28.40;82.40;;;;;;4961694;28;20469;-84
2023/10/01 12:55:52;;;;;;;1.43;0.80;;;28.30;80.50;;;;;;4948934;28;20916;-82
2023/10/01 12:59:03;;;;;;;1.50;0.90;;;28.30;81.70;;;;;;4970969;28;20525;-83
2023/10/01 13:01:54;;;;;;;1.43;0.80;;;28.30;81.10;;;;;;4948503;28;20492;-84
2023/10/01 13:04:32;;;;;;;1.43;0.80;;;28.30;81.20;;;;;;4958820;28;21111;-82
2023/10/01 13:07:03;;;;;;;1.50;1.20;;;28.30;81.20;;;;;;4951207;28;20535;-83
2023/10/01 13:12:31;;;;;;;1.50;0.80;;;28.30;82.30;;;;;;4955291;28;20493;-83
2023/10/01 13:17:44;;;;;;;1.50;0.90;;;28.20;80.70;;;;;;4952929;28;20468;-81
2023/10/01 13:20:23;;;;;;;1.40;0.80;;;28.30;82.70;;;;;;4952669;28;20469;-83
2023/10/01 13:23:06;;;;;;;1.47;0.90;;;28.30;80.80;;;;;;4956761;28;20481;-83
2023/10/01 13:30:18;;;;;;;3.00;2.70;;;28.00;80.00;;;;;;5115204;27;20556;-83
2023/10/01 13:36:23;;;;;;;1.43;0.80;;;27.90;81.00;;;;;;5051610;28;20466;-82
2023/10/01 14:10:00;;;;;;;1.47;0.80;;;28.60;75.20;;;;;;5113128;27;20501;-84
2023/10/01 14:12:54;;;;;;;1.47;0.80;;;28.60;76.40;;;;;;5100297;27;20485;-83
2023/10/01 14:19:21;;;;;;;1.43;0.80;;;28.60;74.90;;;;;;5048627;28;20984;-82
2023/10/01 14:22:18;;;;;;;1.43;0.90;;;28.50;75.70;;;;;;5096368;27;20485;-83
2023/10/01 14:25:20;;;;;;;1.43;0.80;;;28.50;75.80;;;;;;5112592;28;20471;-83
2023/10/01 14:57:26;;;;;;;1.40;0.80;;;28.00;76.40;;;;;;4934914;28;20484;-84
2023/10/01 14:59:56;;;;;;;1.47;0.80;;;27.90;75.80;;;;;;5066649;28;20518;-84
2023/10/01 15:02:56;;;;;;;1.50;0.90;;;27.80;76.30;;;;;;5071759;28;20490;-84
2023/10/01 15:05:38;;;;;;;1.47;0.80;;;27.70;76.10;;;;;;5071466;28;20453;-84
2023/10/01 15:08:16;;;;;;;1.47;0.80;;;27.70;77.20;;;;;;5050502;28;20500;-85
2023/10/01 15:26:20;;;;;;;1.40;0.87;;;26.90;79.00;;;;;;5079521;28;20469;-84
2023/10/01 15:38:53;;;;;;;1.47;0.80;;;26.30;80.60;;;;;;5111423;22;20518;-85
2023/10/01 15:44:59;;;;;;;1.50;0.83;;;26.00;82.10;;;;;;5034929;28;20897;-85
2023/10/01 15:47:36;;;;;;;1.50;0.80;;;25.90;81.90;;;;;;4988271;28;20474;-86
2023/10/01 15:50:07;;;;;;;1.50;0.80;;;25.80;81.90;;;;;;5021524;28;20491;-85
2023/10/01 15:52:55;;;;;;;1.47;0.90;;;25.80;83.30;;;;;;5005358;28;20487;-84
2023/10/01 16:32:48;;;;;;;1.47;0.90;;;24.50;89.70;;;;;;4678913;22;20561;-86
2023/10/01 16:35:28;;;;;;;1.50;0.90;;;24.40;90.10;;;;;;5059177;28;20545;-86
2023/10/01 16:37:57;;;;;;;1.40;0.90;;;24.30;91.20;;;;;;5044650;28;20540;-84
2023/10/01 16:40:39;;;;;;;1.50;1.00;;;24.20;91.80;;;;;;5043189;28;20538;-85
2023/10/01 16:43:24;;;;;;;1.50;0.90;;;24.20;91.80;;;;;;5034973;28;20470;-86
2023/10/01 16:46:41;;;;;;;1.43;0.80;;;24.10;92.50;;;;;;5035165;28;20469;-84
2023/10/01 16:49:28;;;;;;;1.50;0.90;;;24.00;93.00;;;;;;4924899;28;20542;-86
2023/10/01 16:55:48;;;;;;;1.47;0.90;;;23.80;93.80;;;;;;4912170;29;20862;-87
2023/10/01 17:01:50;;;;;;;;;;;;;;;;;;;;;